sensor_id;sensor_type;location;lat;lon;timestamp;temperature;humidity
38090;DHT22;23904;52.322;10.232;2022-08-21T00:00:20;18.70;99.70
38090;DHT22;23904;52.322;10.232;2022-08-21T00:03:06;18.80;99.90
38090;DHT22;23904;52.322;10.232;2022-08-21T00:05:35;18.70;99.50
38090;DHT22;23904;52.322;10.232;2022-08-21T00:08:01;18.70;99.50
38090;DHT22;23904;52.322;10.232;2022-08-21T00:10:27;18.70;99.60
38090;DHT22;23904;52.322;10.232;2022-08-21T00:12:53;18.70;99.90
38090;DHT22;23904;52.322;10.232;2022-08-21T00:15:25;18.70;99.90
38090;DHT22;23904;52.322;10.232;2022-08-21T00:17:54;18.70;99.90
38090;DHT22;23904;52.322;10.232;2022-08-21T00:20:21;18.70;99.90
38090;DHT22;23904;52.322;10.232;2022-08-21T00:22:47;18.70;99.90
38090;DHT22;23904;52.322;10.232;2022-08-21T00:25:14;18.70;99.90
38090;DHT22;23904;52.322;10.232;2022-08-21T00:27:41;18.60;99.90
38090;DHT22;23904;52.322;10.232;2022-08-21T00:30:15;18.60;99.90
38090;DHT22;23904;52.322;10.232;2022-08-21T00:32:41;18.60;99.90
38090;DHT22;23904;52.322;10.232;2022-08-21T00:35:12;18.50;99.90
38090;DHT22;23904;52.322;10.232;2022-08-21T00:37:39;18.50;99.90
38090;DHT22;23904;52.322;10.232;2022-08-21T00:40:09;18.50;99.90
38090;DHT22;23904;52.322;10.232;2022-08-21T00:42:36;18.40;99.90
38090;DHT22;23904;52.322;10.232;2022-08-21T00:45:03;18.40;99.90
38090;DHT22;23904;52.322;10.232;2022-08-21T00:47:29;18.40;99.90
38090;DHT22;23904;52.322;10.232;2022-08-21T00:49:54;18.40;99.90
38090;DHT22;23904;52.322;10.232;2022-08-21T00:52:23;18.40;99.90
38090;DHT22;23904;52.322;10.232;2022-08-21T00:54:49;18.40;99.90
38090;DHT22;23904;52.322;10.232;2022-08-21T00:57:22;18.30;99.90
38090;DHT22;23904;52.322;10.232;2022-08-21T00:59:51;18.30;99.90
38090;DHT22;23904;52.322;10.232;2022-08-21T01:02:19;18.30;99.90
38090;DHT22;23904;52.322;10.232;2022-08-21T01:04:45;18.20;99.90
38090;DHT22;23904;52.322;10.232;2022-08-21T01:07:11;18.20;99.90
38090;DHT22;23904;52.322;10.232;2022-08-21T01:09:38;18.10;99.90
38090;DHT22;23904;52.322;10.232;2022-08-21T01:12:04;18.20;99.90
38090;DHT22;23904;52.322;10.232;2022-08-21T01:14:31;18.10;99.90
38090;DHT22;23904;52.322;10.232;2022-08-21T01:16:58;18.10;99.90
38090;DHT22;23904;52.322;10.232;2022-08-21T01:19:26;18.00;99.90
38090;DHT22;23904;52.322;10.232;2022-08-21T01:21:52;18.00;99.90
38090;DHT22;23904;52.322;10.232;2022-08-21T01:24:20;18.00;99.90
38090;DHT22;23904;52.322;10.232;2022-08-21T01:26:46;18.00;99.90
38090;DHT22;23904;52.322;10.232;2022-08-21T01:29:34;18.00;99.90
38090;DHT22;23904;52.322;10.232;2022-08-21T01:32:06;18.10;99.90
38090;DHT22;23904;52.322;10.232;2022-08-21T01:34:33;18.10;99.90
38090;DHT22;23904;52.322;10.232;2022-08-21T01:36:59;18.10;99.90
38090;DHT22;23904;52.322;10.232;2022-08-21T01:39:24;18.00;99.90
38090;DHT22;23904;52.322;10.232;2022-08-21T01:41:50;18.00;99.90
38090;DHT22;23904;52.322;10.232;2022-08-21T01:44:15;17.80;99.90
38090;DHT22;23904;52.322;10.232;2022-08-21T01:46:41;17.80;99.90
38090;DHT22;23904;52.322;10.232;2022-08-21T01:49:07;17.80;99.90
38090;DHT22;23904;52.322;10.232;2022-08-21T01:51:33;17.80;99.90
38090;DHT22;23904;52.322;10.232;2022-08-21T01:53:59;17.80;99.90
38090;DHT22;23904;52.322;10.232;2022-08-21T01:56:25;17.80;99.90
38090;DHT22;23904;52.322;10.232;2022-08-21T01:58:51;17.80;99.90
38090;DHT22;23904;52.322;10.232;2022-08-21T02:01:16;17.70;99.90
38090;DHT22;23904;52.322;10.232;2022-08-21T02:03:42;17.70;99.90
38090;DHT22;23904;52.322;10.232;2022-08-21T02:06:13;17.60;99.90
38090;DHT22;23904;52.322;10.232;2022-08-21T02:08:40;17.60;99.90
38090;DHT22;23904;52.322;10.232;2022-08-21T02:11:06;17.60;99.90
38090;DHT22;23904;52.322;10.232;2022-08-21T02:13:31;17.50;99.90
38090;DHT22;23904;52.322;10.232;2022-08-21T02:15:57;17.40;99.90
38090;DHT22;23904;52.322;10.232;2022-08-21T02:18:22;17.40;99.90
38090;DHT22;23904;52.322;10.232;2022-08-21T02:20:49;17.40;99.90
38090;DHT22;23904;52.322;10.232;2022-08-21T02:23:15;17.30;99.90
38090;DHT22;23904;52.322;10.232;2022-08-21T02:25:41;17.30;99.90
38090;DHT22;23904;52.322;10.232;2022-08-21T02:28:10;17.30;99.90
38090;DHT22;23904;52.322;10.232;2022-08-21T02:30:40;17.30;99.90
38090;DHT22;23904;52.322;10.232;2022-08-21T02:33:06;17.20;99.90
38090;DHT22;23904;52.322;10.232;2022-08-21T02:35:32;17.20;99.90
38090;DHT22;23904;52.322;10.232;2022-08-21T02:38:02;17.20;99.90
38090;DHT22;23904;52.322;10.232;2022-08-21T02:40:31;17.20;99.90
38090;DHT22;23904;52.322;10.232;2022-08-21T02:42:58;17.20;99.90
38090;DHT22;23904;52.322;10.232;2022-08-21T02:45:24;17.10;99.90
38090;DHT22;23904;52.322;10.232;2022-08-21T02:47:56;17.10;99.90
38090;DHT22;23904;52.322;10.232;2022-08-21T02:50:26;17.10;99.90
38090;DHT22;23904;52.322;10.232;2022-08-21T02:52:51;17.10;99.90
38090;DHT22;23904;52.322;10.232;2022-08-21T02:55:18;17.00;99.90
38090;DHT22;23904;52.322;10.232;2022-08-21T02:57:46;17.00;99.90
38090;DHT22;23904;52.322;10.232;2022-08-21T03:00:12;17.10;99.90
38090;DHT22;23904;52.322;10.232;2022-08-21T03:02:38;17.00;99.90
38090;DHT22;23904;52.322;10.232;2022-08-21T03:05:06;17.10;99.90
38090;DHT22;23904;52.322;10.232;2022-08-21T03:07:32;16.90;99.90
38090;DHT22;23904;52.322;10.232;2022-08-21T03:09:58;16.90;99.90
38090;DHT22;23904;52.322;10.232;2022-08-21T03:12:24;16.80;99.90
38090;DHT22;23904;52.322;10.232;2022-08-21T03:14:49;16.80;99.90
38090;DHT22;23904;52.322;10.232;2022-08-21T03:17:15;16.70;99.90
38090;DHT22;23904;52.322;10.232;2022-08-21T03:19:41;16.70;99.90
38090;DHT22;23904;52.322;10.232;2022-08-21T03:22:06;16.70;99.90
38090;DHT22;23904;52.322;10.232;2022-08-21T03:24:32;16.70;99.90
38090;DHT22;23904;52.322;10.232;2022-08-21T03:26:57;16.60;99.90
38090;DHT22;23904;52.322;10.232;2022-08-21T03:29:23;16.60;99.90
38090;DHT22;23904;52.322;10.232;2022-08-21T03:31:48;16.50;99.90
38090;DHT22;23904;52.322;10.232;2022-08-21T03:34:14;16.50;99.90
38090;DHT22;23904;52.322;10.232;2022-08-21T03:36:39;16.50;99.90
38090;DHT22;23904;52.322;10.232;2022-08-21T03:39:05;16.50;99.90
38090;DHT22;23904;52.322;10.232;2022-08-21T03:41:31;16.40;99.90
38090;DHT22;23904;52.322;10.232;2022-08-21T03:43:56;16.40;99.90
38090;DHT22;23904;52.322;10.232;2022-08-21T03:46:22;16.40;99.90
38090;DHT22;23904;52.322;10.232;2022-08-21T03:48:47;16.40;99.90
38090;DHT22;23904;52.322;10.232;2022-08-21T03:51:13;16.50;99.90
38090;DHT22;23904;52.322;10.232;2022-08-21T03:53:39;16.40;99.90
38090;DHT22;23904;52.322;10.232;2022-08-21T03:56:05;16.40;99.90
38090;DHT22;23904;52.322;10.232;2022-08-21T03:58:31;16.50;99.90
38090;DHT22;23904;52.322;10.232;2022-08-21T04:00:59;16.40;99.90
38090;DHT22;23904;52.322;10.232;2022-08-21T04:03:25;16.40;99.90
38090;DHT22;23904;52.322;10.232;2022-08-21T04:05:51;16.50;99.90
38090;DHT22;23904;52.322;10.232;2022-08-21T04:08:17;16.50;99.90
38090;DHT22;23904;52.322;10.232;2022-08-21T04:10:45;16.50;99.90
38090;DHT22;23904;52.322;10.232;2022-08-21T04:13:12;16.50;99.90
38090;DHT22;23904;52.322;10.232;2022-08-21T04:15:38;16.50;99.90
38090;DHT22;23904;52.322;10.232;2022-08-21T04:18:04;16.40;99.90
38090;DHT22;23904;52.322;10.232;2022-08-21T04:20:30;16.40;99.90
38090;DHT22;23904;52.322;10.232;2022-08-21T04:22:56;16.40;99.90
38090;DHT22;23904;52.322;10.232;2022-08-21T04:25:23;16.40;99.90
38090;DHT22;23904;52.322;10.232;2022-08-21T04:27:50;16.40;99.90
38090;DHT22;23904;52.322;10.232;2022-08-21T04:30:17;16.40;99.90
38090;DHT22;23904;52.322;10.232;2022-08-21T04:32:47;16.40;99.90
38090;DHT22;23904;52.322;10.232;2022-08-21T04:35:17;16.30;99.90
38090;DHT22;23904;52.322;10.232;2022-08-21T04:37:43;16.30;99.90
38090;DHT22;23904;52.322;10.232;2022-08-21T04:40:11;16.40;99.90
38090;DHT22;23904;52.322;10.232;2022-08-21T04:42:47;16.40;99.90
38090;DHT22;23904;52.322;10.232;2022-08-21T04:45:25;16.50;99.90
38090;DHT22;23904;52.322;10.232;2022-08-21T04:47:53;16.60;99.90
38090;DHT22;23904;52.322;10.232;2022-08-21T04:50:20;16.60;99.90
38090;DHT22;23904;52.322;10.232;2022-08-21T04:52:47;16.60;99.90
38090;DHT22;23904;52.322;10.232;2022-08-21T04:55:13;16.60;99.90
38090;DHT22;23904;52.322;10.232;2022-08-21T04:57:40;16.60;99.90
38090;DHT22;23904;52.322;10.232;2022-08-21T05:00:06;16.60;99.90
38090;DHT22;23904;52.322;10.232;2022-08-21T05:02:33;16.60;99.90
38090;DHT22;23904;52.322;10.232;2022-08-21T05:04:59;16.60;99.90
38090;DHT22;23904;52.322;10.232;2022-08-21T05:07:28;16.60;99.90
38090;DHT22;23904;52.322;10.232;2022-08-21T05:09:55;16.60;99.90
38090;DHT22;23904;52.322;10.232;2022-08-21T05:12:21;16.60;99.90
38090;DHT22;23904;52.322;10.232;2022-08-21T05:14:47;16.60;99.90
38090;DHT22;23904;52.322;10.232;2022-08-21T05:17:13;16.70;99.90
38090;DHT22;23904;52.322;10.232;2022-08-21T05:19:39;16.70;99.90
38090;DHT22;23904;52.322;10.232;2022-08-21T05:22:05;16.90;99.90
38090;DHT22;23904;52.322;10.232;2022-08-21T05:24:31;16.90;99.90
38090;DHT22;23904;52.322;10.232;2022-08-21T05:26:57;17.00;99.90
38090;DHT22;23904;52.322;10.232;2022-08-21T05:29:24;17.00;99.90
38090;DHT22;23904;52.322;10.232;2022-08-21T05:31:49;17.10;99.90
38090;DHT22;23904;52.322;10.232;2022-08-21T05:34:20;17.10;99.90
38090;DHT22;23904;52.322;10.232;2022-08-21T05:36:46;17.20;99.90
38090;DHT22;23904;52.322;10.232;2022-08-21T05:39:11;17.20;99.90
38090;DHT22;23904;52.322;10.232;2022-08-21T05:41:37;17.30;99.90
38090;DHT22;23904;52.322;10.232;2022-08-21T05:44:03;17.30;99.90
38090;DHT22;23904;52.322;10.232;2022-08-21T05:46:28;17.30;99.90
38090;DHT22;23904;52.322;10.232;2022-08-21T05:48:54;17.30;99.90
38090;DHT22;23904;52.322;10.232;2022-08-21T05:51:19;17.40;99.90
38090;DHT22;23904;52.322;10.232;2022-08-21T05:53:45;17.40;99.90
38090;DHT22;23904;52.322;10.232;2022-08-21T05:56:12;17.50;99.90
38090;DHT22;23904;52.322;10.232;2022-08-21T05:58:38;17.60;99.90
38090;DHT22;23904;52.322;10.232;2022-08-21T06:01:04;17.60;99.90
38090;DHT22;23904;52.322;10.232;2022-08-21T06:03:34;17.60;99.90
38090;DHT22;23904;52.322;10.232;2022-08-21T06:06:01;17.60;99.90
38090;DHT22;23904;52.322;10.232;2022-08-21T06:08:28;17.50;99.90
38090;DHT22;23904;52.322;10.232;2022-08-21T06:10:55;17.50;99.90
38090;DHT22;23904;52.322;10.232;2022-08-21T06:13:22;17.60;99.90
38090;DHT22;23904;52.322;10.232;2022-08-21T06:15:48;17.70;99.90
38090;DHT22;23904;52.322;10.232;2022-08-21T06:18:14;17.80;99.90
38090;DHT22;23904;52.322;10.232;2022-08-21T06:20:40;17.80;99.90
38090;DHT22;23904;52.322;10.232;2022-08-21T06:23:06;18.00;99.90
38090;DHT22;23904;52.322;10.232;2022-08-21T06:25:31;18.10;99.90
38090;DHT22;23904;52.322;10.232;2022-08-21T06:28:06;18.20;99.90
38090;DHT22;23904;52.322;10.232;2022-08-21T06:30:33;18.30;99.90
38090;DHT22;23904;52.322;10.232;2022-08-21T06:32:59;18.30;99.90
38090;DHT22;23904;52.322;10.232;2022-08-21T06:35:25;18.40;99.90
38090;DHT22;23904;52.322;10.232;2022-08-21T06:37:50;18.50;99.90
38090;DHT22;23904;52.322;10.232;2022-08-21T06:40:16;18.60;99.90
38090;DHT22;23904;52.322;10.232;2022-08-21T06:42:42;18.70;99.90
38090;DHT22;23904;52.322;10.232;2022-08-21T06:45:08;18.80;99.90
38090;DHT22;23904;52.322;10.232;2022-08-21T06:47:33;18.80;99.90
38090;DHT22;23904;52.322;10.232;2022-08-21T06:49:59;19.00;99.90
38090;DHT22;23904;52.322;10.232;2022-08-21T06:52:24;18.80;99.90
38090;DHT22;23904;52.322;10.232;2022-08-21T06:54:50;18.70;99.90
38090;DHT22;23904;52.322;10.232;2022-08-21T06:57:15;18.90;99.90
38090;DHT22;23904;52.322;10.232;2022-08-21T06:59:41;19.00;99.90
38090;DHT22;23904;52.322;10.232;2022-08-21T07:02:06;19.10;99.90
38090;DHT22;23904;52.322;10.232;2022-08-21T07:04:32;19.20;99.90
38090;DHT22;23904;52.322;10.232;2022-08-21T07:06:58;19.30;99.90
38090;DHT22;23904;52.322;10.232;2022-08-21T07:09:24;19.50;99.90
38090;DHT22;23904;52.322;10.232;2022-08-21T07:11:51;19.50;99.90
38090;DHT22;23904;52.322;10.232;2022-08-21T07:14:17;19.50;99.90
38090;DHT22;23904;52.322;10.232;2022-08-21T07:16:43;19.50;99.90
38090;DHT22;23904;52.322;10.232;2022-08-21T07:19:09;19.50;99.90
38090;DHT22;23904;52.322;10.232;2022-08-21T07:21:34;19.40;99.90
38090;DHT22;23904;52.322;10.232;2022-08-21T07:24:00;19.30;99.90
38090;DHT22;23904;52.322;10.232;2022-08-21T07:26:25;19.30;99.90
38090;DHT22;23904;52.322;10.232;2022-08-21T07:28:52;19.40;99.90
38090;DHT22;23904;52.322;10.232;2022-08-21T07:31:19;19.40;99.90
38090;DHT22;23904;52.322;10.232;2022-08-21T07:33:45;19.50;99.90
38090;DHT22;23904;52.322;10.232;2022-08-21T07:36:11;19.50;99.90
38090;DHT22;23904;52.322;10.232;2022-08-21T07:38:37;19.70;99.90
38090;DHT22;23904;52.322;10.232;2022-08-21T07:41:15;19.80;99.90
38090;DHT22;23904;52.322;10.232;2022-08-21T07:43:41;20.10;99.90
38090;DHT22;23904;52.322;10.232;2022-08-21T07:46:06;20.20;99.90
38090;DHT22;23904;52.322;10.232;2022-08-21T07:48:32;20.20;99.90
38090;DHT22;23904;52.322;10.232;2022-08-21T07:50:59;20.30;99.90
38090;DHT22;23904;52.322;10.232;2022-08-21T07:53:27;20.20;99.90
38090;DHT22;23904;52.322;10.232;2022-08-21T07:55:52;20.20;99.90
38090;DHT22;23904;52.322;10.232;2022-08-21T07:58:18;20.40;99.90
38090;DHT22;23904;52.322;10.232;2022-08-21T08:00:43;20.70;99.90
38090;DHT22;23904;52.322;10.232;2022-08-21T08:03:09;20.70;99.90
38090;DHT22;23904;52.322;10.232;2022-08-21T08:05:35;21.00;99.90
38090;DHT22;23904;52.322;10.232;2022-08-21T08:08:02;21.20;99.90
38090;DHT22;23904;52.322;10.232;2022-08-21T08:10:28;21.30;99.90
38090;DHT22;23904;52.322;10.232;2022-08-21T08:12:53;21.60;99.50
38090;DHT22;23904;52.322;10.232;2022-08-21T08:15:23;21.80;99.80
38090;DHT22;23904;52.322;10.232;2022-08-21T08:17:49;22.00;98.70
38090;DHT22;23904;52.322;10.232;2022-08-21T08:20:15;22.20;98.70
38090;DHT22;23904;52.322;10.232;2022-08-21T08:22:42;22.70;97.20
38090;DHT22;23904;52.322;10.232;2022-08-21T08:25:10;22.80;97.20
38090;DHT22;23904;52.322;10.232;2022-08-21T08:27:36;22.80;96.80
38090;DHT22;23904;52.322;10.232;2022-08-21T08:30:04;23.20;96.00
38090;DHT22;23904;52.322;10.232;2022-08-21T08:32:30;23.60;94.40
38090;DHT22;23904;52.322;10.232;2022-08-21T08:34:55;23.70;93.20
38090;DHT22;23904;52.322;10.232;2022-08-21T08:37:21;24.20;93.30
38090;DHT22;23904;52.322;10.232;2022-08-21T08:39:47;24.90;90.40
38090;DHT22;23904;52.322;10.232;2022-08-21T08:42:28;25.80;88.00
38090;DHT22;23904;52.322;10.232;2022-08-21T08:45:02;26.70;84.20
38090;DHT22;23904;52.322;10.232;2022-08-21T08:47:31;28.30;77.50
38090;DHT22;23904;52.322;10.232;2022-08-21T08:50:05;29.00;74.60
38090;DHT22;23904;52.322;10.232;2022-08-21T08:52:34;29.80;71.60
38090;DHT22;23904;52.322;10.232;2022-08-21T08:55:07;29.80;69.70
38090;DHT22;23904;52.322;10.232;2022-08-21T08:57:36;30.00;68.90
38090;DHT22;23904;52.322;10.232;2022-08-21T09:00:08;29.60;67.30
38090;DHT22;23904;52.322;10.232;2022-08-21T09:02:38;29.10;68.90
38090;DHT22;23904;52.322;10.232;2022-08-21T09:05:05;29.50;68.40
38090;DHT22;23904;52.322;10.232;2022-08-21T09:08:06;30.30;66.60
38090;DHT22;23904;52.322;10.232;2022-08-21T09:19:05;31.90;59.60
38090;DHT22;23904;52.322;10.232;2022-08-21T09:26:59;32.30;57.30
38090;DHT22;23904;52.322;10.232;2022-08-21T09:29:30;31.80;58.40
38090;DHT22;23904;52.322;10.232;2022-08-21T09:31:56;32.10;58.20
38090;DHT22;23904;52.322;10.232;2022-08-21T09:34:28;33.10;56.40
38090;DHT22;23904;52.322;10.232;2022-08-21T09:36:55;33.60;55.20
38090;DHT22;23904;52.322;10.232;2022-08-21T09:39:25;33.80;54.30
38090;DHT22;23904;52.322;10.232;2022-08-21T09:42:05;33.80;53.80
38090;DHT22;23904;52.322;10.232;2022-08-21T09:44:34;33.10;54.00
38090;DHT22;23904;52.322;10.232;2022-08-21T09:47:04;33.40;54.00
38090;DHT22;23904;52.322;10.232;2022-08-21T09:49:34;34.40;52.60
38090;DHT22;23904;52.322;10.232;2022-08-21T09:52:00;34.20;51.90
38090;DHT22;23904;52.322;10.232;2022-08-21T09:54:31;33.90;51.60
38090;DHT22;23904;52.322;10.232;2022-08-21T09:57:44;33.80;52.00
38090;DHT22;23904;52.322;10.232;2022-08-21T10:00:28;32.10;53.80
38090;DHT22;23904;52.322;10.232;2022-08-21T10:03:17;31.70;56.60
38090;DHT22;23904;52.322;10.232;2022-08-21T10:06:00;32.50;54.90
38090;DHT22;23904;52.322;10.232;2022-08-21T10:08:31;33.50;52.30
38090;DHT22;23904;52.322;10.232;2022-08-21T10:11:04;33.70;51.70
38090;DHT22;23904;52.322;10.232;2022-08-21T10:21:59;31.20;54.60
38090;DHT22;23904;52.322;10.232;2022-08-21T10:24:50;32.20;52.70
38090;DHT22;23904;52.322;10.232;2022-08-21T10:27:39;32.50;53.00
38090;DHT22;23904;52.322;10.232;2022-08-21T10:36:21;34.50;48.10
38090;DHT22;23904;52.322;10.232;2022-08-21T10:47:22;37.70;40.30
38090;DHT22;23904;52.322;10.232;2022-08-21T10:50:25;38.60;39.70
38090;DHT22;23904;52.322;10.232;2022-08-21T10:53:10;37.90;40.30
38090;DHT22;23904;52.322;10.232;2022-08-21T10:58:42;37.60;40.70
38090;DHT22;23904;52.322;10.232;2022-08-21T11:01:15;38.70;38.20
38090;DHT22;23904;52.322;10.232;2022-08-21T11:03:45;38.60;39.20
38090;DHT22;23904;52.322;10.232;2022-08-21T11:06:20;38.20;39.40
38090;DHT22;23904;52.322;10.232;2022-08-21T11:08:51;37.30;40.30
38090;DHT22;23904;52.322;10.232;2022-08-21T11:11:25;37.10;40.70
38090;DHT22;23904;52.322;10.232;2022-08-21T11:14:03;36.80;41.00
38090;DHT22;23904;52.322;10.232;2022-08-21T11:16:44;36.50;41.20
38090;DHT22;23904;52.322;10.232;2022-08-21T11:24:59;37.40;39.40
38090;DHT22;23904;52.322;10.232;2022-08-21T11:27:32;36.70;40.20
38090;DHT22;23904;52.322;10.232;2022-08-21T11:30:00;36.00;41.20
38090;DHT22;23904;52.322;10.232;2022-08-21T11:43:46;36.50;39.40
38090;DHT22;23904;52.322;10.232;2022-08-21T11:48:50;37.70;37.30
38090;DHT22;23904;52.322;10.232;2022-08-21T11:51:21;36.90;38.20
38090;DHT22;23904;52.322;10.232;2022-08-21T11:53:57;36.40;38.50
38090;DHT22;23904;52.322;10.232;2022-08-21T11:56:34;37.00;37.50
38090;DHT22;23904;52.322;10.232;2022-08-21T11:59:09;36.90;38.10
38090;DHT22;23904;52.322;10.232;2022-08-21T12:01:43;35.90;38.20
38090;DHT22;23904;52.322;10.232;2022-08-21T12:06:43;35.30;39.50
38090;DHT22;23904;52.322;10.232;2022-08-21T12:09:54;34.40;41.20
38090;DHT22;23904;52.322;10.232;2022-08-21T12:12:12;33.30;42.30
38090;DHT22;23904;52.322;10.232;2022-08-21T12:14:45;32.60;42.20
38090;DHT22;23904;52.322;10.232;2022-08-21T12:17:22;31.80;44.40
38090;DHT22;23904;52.322;10.232;2022-08-21T12:20:15;31.20;43.50
38090;DHT22;23904;52.322;10.232;2022-08-21T12:22:41;31.10;44.50
38090;DHT22;23904;52.322;10.232;2022-08-21T12:25:10;31.00;44.00
38090;DHT22;23904;52.322;10.232;2022-08-21T12:28:03;30.70;44.20
38090;DHT22;23904;52.322;10.232;2022-08-21T12:30:38;30.10;43.90
38090;DHT22;23904;52.322;10.232;2022-08-21T12:33:17;29.90;46.20
38090;DHT22;23904;52.322;10.232;2022-08-21T12:35:45;29.00;47.80
38090;DHT22;23904;52.322;10.232;2022-08-21T12:38:21;28.60;49.50
38090;DHT22;23904;52.322;10.232;2022-08-21T12:43:26;28.00;50.20
38090;DHT22;23904;52.322;10.232;2022-08-21T12:45:53;28.20;49.60
38090;DHT22;23904;52.322;10.232;2022-08-21T12:48:42;28.20;50.10
38090;DHT22;23904;52.322;10.232;2022-08-21T12:51:16;28.10;50.30
38090;DHT22;23904;52.322;10.232;2022-08-21T12:53:52;27.80;51.90
38090;DHT22;23904;52.322;10.232;2022-08-21T12:56:21;27.90;51.30
38090;DHT22;23904;52.322;10.232;2022-08-21T12:58:53;28.00;51.60
38090;DHT22;23904;52.322;10.232;2022-08-21T13:01:32;28.30;50.60
38090;DHT22;23904;52.322;10.232;2022-08-21T13:04:10;28.90;49.90
38090;DHT22;23904;52.322;10.232;2022-08-21T13:06:40;30.00;48.60
38090;DHT22;23904;52.322;10.232;2022-08-21T13:09:12;30.60;46.70
38090;DHT22;23904;52.322;10.232;2022-08-21T13:11:40;30.70;46.60
38090;DHT22;23904;52.322;10.232;2022-08-21T13:14:35;30.20;47.30
38090;DHT22;23904;52.322;10.232;2022-08-21T13:17:00;30.20;47.50
38090;DHT22;23904;52.322;10.232;2022-08-21T13:19:28;29.50;48.50
38090;DHT22;23904;52.322;10.232;2022-08-21T13:21:55;29.50;48.40
38090;DHT22;23904;52.322;10.232;2022-08-21T13:24:35;29.40;47.90
38090;DHT22;23904;52.322;10.232;2022-08-21T13:27:01;29.20;49.20
38090;DHT22;23904;52.322;10.232;2022-08-21T13:29:33;29.10;49.50
38090;DHT22;23904;52.322;10.232;2022-08-21T13:32:01;29.20;48.00
38090;DHT22;23904;52.322;10.232;2022-08-21T13:34:37;29.30;49.20
38090;DHT22;23904;52.322;10.232;2022-08-21T13:37:08;29.00;49.00
38090;DHT22;23904;52.322;10.232;2022-08-21T13:39:34;28.70;48.80
38090;DHT22;23904;52.322;10.232;2022-08-21T13:42:02;28.70;49.50
38090;DHT22;23904;52.322;10.232;2022-08-21T13:44:35;28.90;49.10
38090;DHT22;23904;52.322;10.232;2022-08-21T13:47:02;28.90;49.60
38090;DHT22;23904;52.322;10.232;2022-08-21T13:49:34;28.80;49.60
38090;DHT22;23904;52.322;10.232;2022-08-21T13:52:01;28.80;49.70
38090;DHT22;23904;52.322;10.232;2022-08-21T13:54:34;29.00;49.20
38090;DHT22;23904;52.322;10.232;2022-08-21T13:57:00;29.20;48.20
38090;DHT22;23904;52.322;10.232;2022-08-21T13:59:34;29.30;48.50
38090;DHT22;23904;52.322;10.232;2022-08-21T14:02:10;29.20;48.20
38090;DHT22;23904;52.322;10.232;2022-08-21T14:04:42;28.80;48.40
38090;DHT22;23904;52.322;10.232;2022-08-21T14:07:20;28.10;49.60
38090;DHT22;23904;52.322;10.232;2022-08-21T14:09:46;27.80;50.70
38090;DHT22;23904;52.322;10.232;2022-08-21T14:12:34;27.50;51.90
38090;DHT22;23904;52.322;10.232;2022-08-21T14:15:03;27.50;51.80
38090;DHT22;23904;52.322;10.232;2022-08-21T14:17:36;27.70;52.40
38090;DHT22;23904;52.322;10.232;2022-08-21T14:20:04;27.80;49.80
38090;DHT22;23904;52.322;10.232;2022-08-21T14:22:43;27.70;51.80
38090;DHT22;23904;52.322;10.232;2022-08-21T14:25:43;27.80;51.50
38090;DHT22;23904;52.322;10.232;2022-08-21T14:30:52;27.60;53.30
38090;DHT22;23904;52.322;10.232;2022-08-21T14:33:26;27.50;52.60
38090;DHT22;23904;52.322;10.232;2022-08-21T14:35:52;27.50;52.70
38090;DHT22;23904;52.322;10.232;2022-08-21T14:38:19;27.30;52.30
38090;DHT22;23904;52.322;10.232;2022-08-21T14:40:52;27.40;51.10
38090;DHT22;23904;52.322;10.232;2022-08-21T14:43:18;27.70;51.00
38090;DHT22;23904;52.322;10.232;2022-08-21T14:45:44;27.60;52.60
38090;DHT22;23904;52.322;10.232;2022-08-21T14:48:10;27.80;52.10
38090;DHT22;23904;52.322;10.232;2022-08-21T14:50:36;28.10;51.60
38090;DHT22;23904;52.322;10.232;2022-08-21T14:53:03;28.40;50.70
38090;DHT22;23904;52.322;10.232;2022-08-21T14:55:30;28.60;50.80
38090;DHT22;23904;52.322;10.232;2022-08-21T14:57:56;28.80;50.50
38090;DHT22;23904;52.322;10.232;2022-08-21T15:00:23;28.80;50.50
38090;DHT22;23904;52.322;10.232;2022-08-21T15:02:49;29.10;49.30
38090;DHT22;23904;52.322;10.232;2022-08-21T15:05:16;29.00;49.60
38090;DHT22;23904;52.322;10.232;2022-08-21T15:07:42;28.60;50.80
38090;DHT22;23904;52.322;10.232;2022-08-21T15:10:08;28.40;50.90
38090;DHT22;23904;52.322;10.232;2022-08-21T15:12:34;28.20;51.60
38090;DHT22;23904;52.322;10.232;2022-08-21T15:15:00;28.00;52.00
38090;DHT22;23904;52.322;10.232;2022-08-21T15:17:26;27.90;52.30
38090;DHT22;23904;52.322;10.232;2022-08-21T15:19:51;27.90;51.70
38090;DHT22;23904;52.322;10.232;2022-08-21T15:22:17;27.70;52.10
38090;DHT22;23904;52.322;10.232;2022-08-21T15:24:42;27.70;52.60
38090;DHT22;23904;52.322;10.232;2022-08-21T15:27:09;27.60;52.80
38090;DHT22;23904;52.322;10.232;2022-08-21T15:29:36;27.50;53.20
38090;DHT22;23904;52.322;10.232;2022-08-21T15:32:23;27.40;53.10
38090;DHT22;23904;52.322;10.232;2022-08-21T15:34:50;27.20;52.80
38090;DHT22;23904;52.322;10.232;2022-08-21T15:37:16;27.10;53.30
38090;DHT22;23904;52.322;10.232;2022-08-21T15:39:42;26.90;54.00
38090;DHT22;23904;52.322;10.232;2022-08-21T15:42:08;26.80;53.20
38090;DHT22;23904;52.322;10.232;2022-08-21T15:44:34;26.70;54.00
38090;DHT22;23904;52.322;10.232;2022-08-21T15:47:00;26.60;54.80
38090;DHT22;23904;52.322;10.232;2022-08-21T15:49:25;26.50;55.10
38090;DHT22;23904;52.322;10.232;2022-08-21T15:51:51;26.50;55.50
38090;DHT22;23904;52.322;10.232;2022-08-21T15:54:17;26.40;55.50
38090;DHT22;23904;52.322;10.232;2022-08-21T15:56:45;26.40;55.10
38090;DHT22;23904;52.322;10.232;2022-08-21T15:59:17;26.40;55.00
38090;DHT22;23904;52.322;10.232;2022-08-21T16:01:44;26.40;53.90
38090;DHT22;23904;52.322;10.232;2022-08-21T16:04:10;26.40;55.00
38090;DHT22;23904;52.322;10.232;2022-08-21T16:06:39;26.40;55.80
38090;DHT22;23904;52.322;10.232;2022-08-21T16:09:04;26.30;55.00
38090;DHT22;23904;52.322;10.232;2022-08-21T16:11:30;26.30;55.60
38090;DHT22;23904;52.322;10.232;2022-08-21T16:13:56;26.40;54.20
38090;DHT22;23904;52.322;10.232;2022-08-21T16:16:23;26.40;54.90
38090;DHT22;23904;52.322;10.232;2022-08-21T16:18:50;26.20;54.80
38090;DHT22;23904;52.322;10.232;2022-08-21T16:21:16;26.10;55.00
38090;DHT22;23904;52.322;10.232;2022-08-21T16:23:42;26.10;55.30
38090;DHT22;23904;52.322;10.232;2022-08-21T16:26:09;26.10;54.30
38090;DHT22;23904;52.322;10.232;2022-08-21T16:28:38;26.20;55.20
38090;DHT22;23904;52.322;10.232;2022-08-21T16:31:04;26.20;55.00
38090;DHT22;23904;52.322;10.232;2022-08-21T16:33:36;26.10;54.40